Time,TemperatureF,DewpointF,PressureIn,WindDirection,WindDirectionDegrees,WindSpeedMPH,WindSpeedGustMPH,Humidity,HourlyPrecipIn,Conditions,Clouds,dailyrainin,SoftwareType,DateUTC
2013-01-01 00:01:00,-7.1,-10.9,30.23,NW,316,0.0,0.0,83,0.00,,CLR,0.00,VWS V14.01,2013-01-01 06:01:00,
2013-01-01 00:07:00,-7.3,-11.1,30.23,NW,316,0.0,0.0,83,0.00,,CLR,0.00,VWS V14.01,2013-01-01 06:07:00,
2013-01-01 00:12:00,-7.6,-11.4,30.23,NW,316,0.0,0.0,83,0.00,,CLR,0.00,VWS V14.01,2013-01-01 06:12:00,
2013-01-01 00:18:00,-7.9,-11.7,30.23,NW,316,0.0,0.0,83,0.00,,CLR,0.00,VWS V14.01,2013-01-01 06:18:00,
2013-01-01 00:24:00,-8.1,-11.9,30.23,NW,316,0.0,0.0,83,0.00,,CLR,0.00,VWS V14.01,2013-01-01 06:24:00,
2013-01-01 00:29:00,-8.2,-12.0,30.22,NW,316,0.0,0.0,83,0.00,,CLR,0.00,VWS V14.01,2013-01-01 06:29:00,
2013-01-01 00:34:00,-8.1,-11.6,30.22,NW,316,0.0,0.0,84,0.00,,CLR,0.00,VWS V14.01,2013-01-01 06:34:00,
2013-01-01 00:39:00,-7.7,-11.0,30.22,NW,316,0.0,0.0,85,0.00,,CLR,0.00,VWS V14.01,2013-01-01 06:39:00,
2013-01-01 00:44:00,-6.8,-9.6,30.22,NW,316,0.0,0.0,87,0.00,,CLR,0.00,VWS V14.01,2013-01-01 06:44:00,
2013-01-01 00:50:00,-6.0,-8.6,30.22,NW,316,0.0,0.0,88,0.00,,CLR,0.00,VWS V14.01,2013-01-01 06:50:00,
2013-01-01 00:56:00,-5.5,-8.4,30.22,NW,316,0.0,0.0,87,0.00,,CLR,0.00,VWS V14.01,2013-01-01 06:56:00,
2013-01-01 01:01:00,-5.4,-8.3,30.22,NW,316,0.0,0.0,87,0.00,,CLR,0.00,VWS V14.01,2013-01-01 07:01:00,
2013-01-01 01:06:00,-5.4,-8.5,30.22,NW,316,0.0,0.0,86,0.00,,CLR,0.00,VWS V14.01,2013-01-01 07:06:00,
2013-01-01 01:11:00,-5.4,-8.5,30.22,NW,316,0.0,0.0,86,0.00,,CLR,0.00,VWS V14.01,2013-01-01 07:11:00,
2013-01-01 01:16:00,-5.5,-8.8,30.22,NW,316,0.0,0.0,85,0.00,,CLR,0.00,VWS V14.01,2013-01-01 07:16:00,
2013-01-01 01:22:00,-5.9,-9.5,30.22,NW,316,0.0,0.0,84,0.00,,CLR,0.00,VWS V14.01,2013-01-01 07:22:00,
2013-01-01 01:27:00,-6.2,-9.8,30.22,NW,316,0.0,0.0,84,0.00,,CLR,0.00,VWS V14.01,2013-01-01 07:27:00,
2013-01-01 01:33:00,-6.5,-10.1,30.22,NW,316,0.0,0.0,84,0.00,,CLR,0.00,VWS V14.01,2013-01-01 07:33:00,
2013-01-01 01:38:00,-6.8,-10.4,30.23,NW,316,0.0,0.0,84,0.00,,CLR,0.00,VWS V14.01,2013-01-01 07:38:00,
2013-01-01 01:44:00,-7.1,-10.9,30.22,NW,316,0.0,0.0,83,0.00,,CLR,0.00,VWS V14.01,2013-01-01 07:44:00,
2013-01-01 01:49:00,-7.6,-11.4,30.22,NW,316,0.0,0.0,83,0.00,,CLR,0.00,VWS V14.01,2013-01-01 07:49:00,
2013-01-01 01:54:00,-7.9,-11.7,30.22,NW,316,0.0,0.0,83,0.00,,CLR,0.00,VWS V14.01,2013-01-01 07:54:00,
2013-01-01 01:59:00,-8.1,-11.9,30.22,NW,316,0.0,0.0,83,0.00,,CLR,0.00,VWS V14.01,2013-01-01 07:59:00,
2013-01-01 02:04:00,-8.3,-12.1,30.22,NW,316,0.0,0.0,83,0.00,,CLR,0.00,VWS V14.01,2013-01-01 08:04:00,
2013-01-01 02:09:00,-8.5,-12.3,30.22,NW,316,0.0,0.0,83,0.00,,CLR,0.00,VWS V14.01,2013-01-01 08:09:00,
2013-01-01 02:15:00,-8.7,-12.5,30.22,NW,316,0.0,0.0,83,0.00,,CLR,0.00,VWS V14.01,2013-01-01 08:15:00,
2013-01-01 02:20:00,-8.8,-12.6,30.23,NW,316,0.0,0.0,83,0.00,,CLR,0.00,VWS V14.01,2013-01-01 08:20:00,
2013-01-01 02:25:00,-8.9,-12.7,30.23,NW,316,0.0,0.0,83,0.00,,CLR,0.00,VWS V14.01,2013-01-01 08:25:00,
2013-01-01 02:31:00,-8.6,-11.9,30.23,NW,316,0.0,0.0,85,0.00,,CLR,0.00,VWS V14.01,2013-01-01 08:31:00,
2013-01-01 02:36:00,-8.4,-11.7,30.23,NW,316,0.0,0.0,85,0.00,,CLR,0.00,VWS V14.01,2013-01-01 08:36:00,
2013-01-01 02:42:00,-8.3,-11.6,30.23,NW,316,0.0,0.0,85,0.00,,CLR,0.00,VWS V14.01,2013-01-01 08:42:00,
2013-01-01 02:47:00,-8.1,-11.4,30.23,NW,316,0.0,0.0,85,0.00,,CLR,0.00,VWS V14.01,2013-01-01 08:47:00,
2013-01-01 02:52:00,-8.0,-11.3,30.23,NW,316,0.0,0.0,85,0.00,,CLR,0.00,VWS V14.01,2013-01-01 08:52:00,
2013-01-01 02:57:00,-8.0,-11.3,30.23,NW,316,0.0,0.0,85,0.00,,CLR,0.00,VWS V14.01,2013-01-01 08:57:00,
2013-01-01 03:02:00,-7.8,-10.9,30.23,NW,316,0.0,0.0,86,0.00,,CLR,0.00,VWS V14.01,2013-01-01 09:02:00,
2013-01-01 03:07:00,-7.6,-10.7,30.23,NW,316,0.0,0.0,86,0.00,,CLR,0.00,VWS V14.01,2013-01-01 09:07:00,
2013-01-01 03:13:00,-7.5,-10.6,30.22,NW,316,0.0,0.0,86,0.00,,CLR,0.00,VWS V14.01,2013-01-01 09:13:00,
2013-01-01 03:19:00,-7.6,-10.9,30.23,NW,316,0.0,0.0,85,0.00,,CLR,0.00,VWS V14.01,2013-01-01 09:19:00,
2013-01-01 03:24:00,-7.7,-11.0,30.23,NW,316,0.0,0.0,85,0.00,,CLR,0.00,VWS V14.01,2013-01-01 09:24:00,
2013-01-01 03:29:00,-7.9,-11.4,30.23,NW,316,0.0,0.0,84,0.00,,CLR,0.00,VWS V14.01,2013-01-01 09:29:00,
2013-01-01 03:35:00,-8.4,-12.2,30.23,NW,316,0.0,0.0,83,0.00,,CLR,0.00,VWS V14.01,2013-01-01 09:35:00,
2013-01-01 03:40:00,-8.8,-12.6,30.22,NW,316,0.0,0.0,83,0.00,,CLR,0.00,VWS V14.01,2013-01-01 09:40:00,
2013-01-01 03:45:00,-8.8,-12.3,30.23,NW,316,0.0,0.0,84,0.00,,CLR,0.00,VWS V14.01,2013-01-01 09:45:00,
2013-01-01 03:50:00,-8.9,-12.4,30.23,NW,316,0.0,0.0,84,0.00,,CLR,0.00,VWS V14.01,2013-01-01 09:50:00,
2013-01-01 03:55:00,-8.9,-12.4,30.23,NW,316,0.0,0.0,84,0.00,,CLR,0.00,VWS V14.01,2013-01-01 09:55:00,
2013-01-01 04:00:00,-9.0,-12.5,30.23,NW,316,0.0,0.0,84,0.00,,CLR,0.00,VWS V14.01,2013-01-01 10:00:00,
2013-01-01 04:06:00,-8.9,-12.2,30.23,NW,316,0.0,0.0,85,0.00,,CLR,0.00,VWS V14.01,2013-01-01 10:06:00,
2013-01-01 04:11:00,-8.8,-12.1,30.23,NW,316,0.0,0.0,85,0.00,,CLR,0.00,VWS V14.01,2013-01-01 10:11:00,
2013-01-01 04:17:00,-8.9,-12.2,30.23,NW,316,0.0,0.0,85,0.00,,CLR,0.00,VWS V14.01,2013-01-01 10:17:00,
2013-01-01 04:22:00,-9.1,-12.6,30.22,NW,316,0.0,0.0,84,0.00,,CLR,0.00,VWS V14.01,2013-01-01 10:22:00,
2013-01-01 04:27:00,-9.4,-12.9,30.22,NW,316,0.0,0.0,84,0.00,,CLR,0.00,VWS V14.01,2013-01-01 10:27:00,
2013-01-01 04:32:00,-9.8,-13.5,30.23,NW,316,0.0,0.0,83,0.00,,CLR,0.00,VWS V14.01,2013-01-01 10:32:00,
2013-01-01 04:37:00,-10.0,-13.7,30.23,NW,316,0.0,0.0,83,0.00,,CLR,0.00,VWS V14.01,2013-01-01 10:37:00,
2013-01-01 04:42:00,-10.2,-13.9,30.23,NW,316,0.0,0.0,83,0.00,,CLR,0.00,VWS V14.01,2013-01-01 10:42:00,
2013-01-01 04:47:00,-10.1,-13.6,30.23,NW,316,0.0,0.0,84,0.00,,CLR,0.00,VWS V14.01,2013-01-01 10:47:00,
2013-01-01 04:52:00,-10.1,-13.6,30.23,NW,316,0.0,0.0,84,0.00,,CLR,0.00,VWS V14.01,2013-01-01 10:52:00,
2013-01-01 04:57:00,-10.1,-13.6,30.23,NW,316,0.0,0.0,84,0.00,,CLR,0.00,VWS V14.01,2013-01-01 10:57:00,
2013-01-01 05:02:00,-10.4,-14.1,30.23,NW,316,0.0,0.0,83,0.00,,CLR,0.00,VWS V14.01,2013-01-01 11:02:00,
2013-01-01 05:08:00,-10.9,-14.6,30.23,NW,316,0.0,0.0,83,0.00,,CLR,0.00,VWS V14.01,2013-01-01 11:08:00,
2013-01-01 05:13:00,-10.7,-14.2,30.23,NW,316,0.0,0.0,84,0.00,,CLR,0.00,VWS V14.01,2013-01-01 11:13:00,
2013-01-01 05:18:00,-10.1,-13.1,30.23,NW,316,0.0,0.0,86,0.00,,CLR,0.00,VWS V14.01,2013-01-01 11:18:00,
2013-01-01 05:24:00,-9.9,-12.9,30.23,NW,316,0.0,0.0,86,0.00,,CLR,0.00,VWS V14.01,2013-01-01 11:24:00,
2013-01-01 05:30:00,-9.7,-13.0,30.23,NW,316,0.0,0.0,85,0.00,,CLR,0.00,VWS V14.01,2013-01-01 11:30:00,
2013-01-01 05:35:00,-9.7,-13.0,30.23,NW,316,0.0,0.0,85,0.00,,CLR,0.00,VWS V14.01,2013-01-01 11:35:00,
2013-01-01 05:41:00,-9.6,-12.9,30.23,NW,316,0.0,0.0,85,0.00,,CLR,0.00,VWS V14.01,2013-01-01 11:41:00,
2013-01-01 05:46:00,-9.7,-13.0,30.23,NW,316,0.0,0.0,85,0.00,,CLR,0.00,VWS V14.01,2013-01-01 11:46:00,
2013-01-01 05:51:00,-9.8,-13.3,30.23,NW,316,0.0,0.0,84,0.00,,CLR,0.00,VWS V14.01,2013-01-01 11:51:00,
2013-01-01 05:56:00,-9.9,-13.4,30.23,NW,316,0.0,0.0,84,0.00,,CLR,0.00,VWS V14.01,2013-01-01 11:56:00,
2013-01-01 06:02:00,-10.2,-13.9,30.23,NW,316,0.0,0.0,83,0.00,,CLR,0.00,VWS V14.01,2013-01-01 12:02:00,
2013-01-01 06:07:00,-10.4,-14.1,30.23,NW,316,0.0,0.0,83,0.00,,CLR,0.00,VWS V14.01,2013-01-01 12:07:00,
2013-01-01 06:12:00,-10.7,-14.4,30.23,NW,316,0.0,0.0,83,0.00,,CLR,0.00,VWS V14.01,2013-01-01 12:12:00,
2013-01-01 06:18:00,-10.7,-14.4,30.23,NW,316,0.0,0.0,83,0.00,,CLR,0.00,VWS V14.01,2013-01-01 12:18:00,
2013-01-01 06:23:00,-10.8,-14.5,30.23,NW,316,0.0,0.0,83,0.00,,CLR,0.00,VWS V14.01,2013-01-01 12:23:00,
2013-01-01 06:28:00,-11.0,-14.7,30.23,NW,316,0.0,0.0,83,0.00,,CLR,0.00,VWS V14.01,2013-01-01 12:28:00,
2013-01-01 06:33:00,-11.2,-15.1,30.23,NW,316,0.0,0.0,82,0.00,,CLR,0.00,VWS V14.01,2013-01-01 12:33:00,
2013-01-01 06:39:00,-11.2,-14.9,30.23,NW,316,0.0,0.0,83,0.00,,CLR,0.00,VWS V14.01,2013-01-01 12:39:00,
2013-01-01 06:44:00,-11.2,-14.7,30.23,NW,316,0.0,0.0,84,0.00,,CLR,0.00,VWS V14.01,2013-01-01 12:44:00,
2013-01-01 06:50:00,-11.1,-14.6,30.23,NW,316,0.0,0.0,84,0.00,,CLR,0.00,VWS V14.01,2013-01-01 12:50:00,
2013-01-01 06:55:00,-11.0,-14.5,30.23,NW,316,0.0,0.0,84,0.00,,CLR,0.00,VWS V14.01,2013-01-01 12:55:00,
2013-01-01 07:00:00,-10.9,-14.4,30.23,NW,316,0.0,0.0,84,0.00,,CLR,0.00,VWS V14.01,2013-01-01 13:00:00,
2013-01-01 07:05:00,-11.0,-14.5,30.23,NW,316,0.0,0.0,84,0.00,,CLR,0.00,VWS V14.01,2013-01-01 13:05:00,
2013-01-01 07:11:00,-11.7,-15.6,30.23,NW,316,0.0,0.0,82,0.00,,CLR,0.00,VWS V14.01,2013-01-01 13:11:00,
2013-01-01 07:16:00,-11.7,-15.4,30.22,NW,316,0.0,0.0,83,0.00,,CLR,0.00,VWS V14.01,2013-01-01 13:16:00,
2013-01-01 07:21:00,-11.6,-15.1,30.22,NW,316,0.0,0.0,84,0.00,,CLR,0.00,VWS V14.01,2013-01-01 13:21:00,
2013-01-01 07:26:00,-11.6,-15.1,30.22,NW,316,0.0,0.0,84,0.00,,CLR,0.00,VWS V14.01,2013-01-01 13:26:00,
2013-01-01 07:32:00,-11.6,-15.1,30.22,NW,316,0.0,0.0,84,0.00,,CLR,0.00,VWS V14.01,2013-01-01 13:32:00,
2013-01-01 07:38:00,-11.6,-15.1,30.22,NW,316,0.0,0.0,84,0.00,,CLR,0.00,VWS V14.01,2013-01-01 13:38:00,
2013-01-01 07:43:00,-11.6,-15.3,30.22,NW,316,0.0,0.0,83,0.00,,CLR,0.00,VWS V14.01,2013-01-01 13:43:00,
2013-01-01 07:48:00,-11.8,-15.5,30.22,NW,316,0.0,0.0,83,0.00,,CLR,0.00,VWS V14.01,2013-01-01 13:48:00,
2013-01-01 07:53:00,-11.7,-15.4,30.21,NW,316,0.0,0.0,83,0.00,,CLR,0.00,VWS V14.01,2013-01-01 13:53:00,
2013-01-01 07:58:00,-11.8,-15.5,30.22,NW,316,0.0,0.0,83,0.00,,CLR,0.00,VWS V14.01,2013-01-01 13:58:00,
2013-01-01 08:04:00,-12.1,-16.0,30.21,NW,316,0.0,0.0,82,0.00,,CLR,0.00,VWS V14.01,2013-01-01 14:04:00,
2013-01-01 08:10:00,-12.1,-15.8,30.21,NW,316,0.0,0.0,83,0.00,,CLR,0.00,VWS V14.01,2013-01-01 14:10:00,
2013-01-01 08:15:00,-11.7,-15.2,30.21,NW,316,0.0,0.0,84,0.00,,CLR,0.00,VWS V14.01,2013-01-01 14:15:00,
2013-01-01 08:20:00,-11.5,-15.0,30.21,NW,316,0.0,0.0,84,0.00,,CLR,0.00,VWS V14.01,2013-01-01 14:20:00,
2013-01-01 08:25:00,-11.5,-15.0,30.21,NW,316,0.0,0.0,84,0.00,,CLR,0.00,VWS V14.01,2013-01-01 14:25:00,
2013-01-01 08:30:00,-11.4,-14.9,30.21,NW,316,0.0,0.0,84,0.00,,CLR,0.00,VWS V14.01,2013-01-01 14:30:00,
2013-01-01 08:35:00,-11.1,-14.3,30.21,NW,316,0.0,0.0,85,0.00,,CLR,0.00,VWS V14.01,2013-01-01 14:35:00,
2013-01-01 08:40:00,-10.7,-13.9,30.21,NW,316,0.0,0.0,85,0.00,,CLR,0.00,VWS V14.01,2013-01-01 14:40:00,
2013-01-01 08:45:00,-10.2,-13.2,30.21,NW,316,0.0,0.0,86,0.00,,CLR,0.00,VWS V14.01,2013-01-01 14:45:00,
2013-01-01 08:51:00,-9.4,-12.4,30.21,NW,316,0.0,0.0,86,0.00,,CLR,0.00,VWS V14.01,2013-01-01 14:51:00,
2013-01-01 08:56:00,-8.4,-11.2,30.21,NW,316,0.0,0.0,87,0.00,,CLR,0.00,VWS V14.01,2013-01-01 14:56:00,
2013-01-01 09:02:00,-7.5,-10.1,30.21,NW,316,0.0,0.0,88,0.00,,CLR,0.00,VWS V14.01,2013-01-01 15:02:00,
2013-01-01 09:08:00,-6.8,-9.6,30.21,NW,316,0.0,0.0,87,0.00,,CLR,0.00,VWS V14.01,2013-01-01 15:08:00,
2013-01-01 09:14:00,-6.2,-9.1,30.21,West,262,0.0,0.0,87,0.00,,CLR,0.00,VWS V14.01,2013-01-01 15:14:00,
2013-01-01 09:19:00,-5.8,-8.7,30.21,West,261,0.0,0.0,87,0.00,,CLR,0.00,VWS V14.01,2013-01-01 15:19:00,
2013-01-01 09:24:00,-5.3,-8.2,30.21,WSW,245,0.0,0.0,87,0.00,,CLR,0.00,VWS V14.01,2013-01-01 15:24:00,
2013-01-01 09:29:00,-4.9,-8.0,30.21,WSW,245,0.0,0.0,86,0.00,,CLR,0.00,VWS V14.01,2013-01-01 15:29:00,
2013-01-01 09:34:00,-4.4,-7.3,30.21,WSW,245,0.0,0.0,87,0.00,,CLR,0.00,VWS V14.01,2013-01-01 15:34:00,
2013-01-01 09:39:00,-3.9,-6.8,30.21,WSW,245,0.0,0.0,87,0.00,,CLR,0.00,VWS V14.01,2013-01-01 15:39:00,
2013-01-01 09:45:00,-3.5,-6.6,30.21,WSW,245,0.0,0.0,86,0.00,,CLR,0.00,VWS V14.01,2013-01-01 15:45:00,
2013-01-01 09:50:00,-3.2,-6.3,30.21,WSW,245,0.0,0.0,86,0.00,,CLR,0.00,VWS V14.01,2013-01-01 15:50:00,
2013-01-01 09:55:00,-2.8,-5.9,30.21,WSW,245,0.0,0.0,86,0.00,,CLR,0.00,VWS V14.01,2013-01-01 15:55:00,
2013-01-01 10:00:00,-2.5,-5.6,30.21,WSW,245,0.0,0.0,86,0.00,,CLR,0.00,VWS V14.01,2013-01-01 16:00:00,
2013-01-01 10:05:00,-1.9,-4.8,30.20,WSW,245,0.0,0.0,87,0.00,,CLR,0.00,VWS V14.01,2013-01-01 16:05:00,
2013-01-01 10:11:00,-1.3,-4.2,30.20,WSW,245,0.0,0.0,87,0.00,,CLR,0.00,VWS V14.01,2013-01-01 16:11:00,
2013-01-01 10:17:00,-0.5,-3.4,30.20,WSW,245,0.0,0.0,87,0.00,,CLR,0.00,VWS V14.01,2013-01-01 16:17:00,
2013-01-01 10:22:00,0.4,-2.5,30.20,WSW,245,0.0,0.0,87,0.00,,CLR,0.00,VWS V14.01,2013-01-01 16:22:00,
2013-01-01 10:27:00,1.1,-1.9,30.20,SSW,195,0.0,0.0,87,0.00,,CLR,0.00,VWS V14.01,2013-01-01 16:27:00,
2013-01-01 10:32:00,1.8,-1.4,30.20,SSW,195,0.0,0.0,86,0.00,,CLR,0.00,VWS V14.01,2013-01-01 16:32:00,
2013-01-01 10:37:00,2.3,-1.2,30.20,SSW,212,0.0,0.0,85,0.00,,CLR,0.00,VWS V14.01,2013-01-01 16:37:00,
2013-01-01 10:42:00,3.1,-0.4,30.20,SSW,212,0.0,0.0,85,0.00,,CLR,0.00,VWS V14.01,2013-01-01 16:42:00,
2013-01-01 10:48:00,4.1,0.3,30.19,SSW,212,2.0,2.0,84,0.00,,CLR,0.00,VWS V14.01,2013-01-01 16:48:00,
2013-01-01 10:54:00,4.6,0.3,30.19,SSW,212,2.0,2.0,82,0.00,,CLR,0.00,VWS V14.01,2013-01-01 16:54:00,
2013-01-01 10:59:00,4.9,0.6,30.19,SSW,212,0.0,2.0,82,0.00,,CLR,0.00,VWS V14.01,2013-01-01 16:59:00,
2013-01-01 11:05:00,5.3,1.0,30.19,SSW,212,0.0,3.0,82,0.00,,SCT024,0.00,VWS V14.01,2013-01-01 17:05:00,
2013-01-01 11:10:00,5.7,1.1,30.18,SSW,212,0.0,0.0,81,0.00,,SCT024,0.00,VWS V14.01,2013-01-01 17:10:00,
2013-01-01 11:16:00,6.3,1.5,30.18,SW,219,0.0,0.0,80,0.00,,SCT024,0.00,VWS V14.01,2013-01-01 17:16:00,
2013-01-01 11:21:00,6.5,1.4,30.18,SW,219,0.0,2.0,79,0.00,,OVC022,0.00,VWS V14.01,2013-01-01 17:21:00,
2013-01-01 11:27:00,6.9,1.8,30.18,SW,219,0.0,0.0,79,0.00,,OVC022,0.00,VWS V14.01,2013-01-01 17:27:00,
2013-01-01 11:33:00,7.4,2.0,30.17,SW,219,0.0,0.0,78,0.00,,OVC022,0.00,VWS V14.01,2013-01-01 17:33:00,
2013-01-01 11:39:00,7.8,2.1,30.17,SW,219,0.0,1.0,77,0.00,,OVC022,0.00,VWS V14.01,2013-01-01 17:39:00,
2013-01-01 11:44:00,8.1,2.4,30.17,South,185,3.0,3.0,77,0.00,,OVC020,0.00,VWS V14.01,2013-01-01 17:44:00,
2013-01-01 11:50:00,8.2,2.2,30.17,South,173,0.0,0.0,76,0.00,,OVC020,0.00,VWS V14.01,2013-01-01 17:50:00,
2013-01-01 11:56:00,8.6,2.9,30.17,South,173,0.0,0.0,77,0.00,,OVC020,0.00,VWS V14.01,2013-01-01 17:56:00,
2013-01-01 12:01:00,8.9,3.2,30.17,South,173,0.0,0.0,77,0.00,,OVC018,0.00,VWS V14.01,2013-01-01 18:01:00,
2013-01-01 12:06:00,9.1,3.1,30.16,South,173,0.0,1.0,76,0.00,,OVC018,0.00,VWS V14.01,2013-01-01 18:06:00,
2013-01-01 12:11:00,9.3,3.3,30.16,South,173,0.0,0.0,76,0.00,,OVC018,0.00,VWS V14.01,2013-01-01 18:11:00,
2013-01-01 12:16:00,9.3,3.0,30.16,South,173,0.0,5.0,75,0.00,,OVC018,0.00,VWS V14.01,2013-01-01 18:16:00,
2013-01-01 12:21:00,9.1,2.5,30.16,South,182,6.0,7.0,74,0.00,,OVC018,0.00,VWS V14.01,2013-01-01 18:21:00,
2013-01-01 12:26:00,8.9,2.3,30.16,South,184,1.0,3.0,74,0.00,,OVC018,0.00,VWS V14.01,2013-01-01 18:26:00,
2013-01-01 12:32:00,9.2,3.2,30.16,South,184,1.0,1.0,76,0.00,,OVC018,0.00,VWS V14.01,2013-01-01 18:32:00,
2013-01-01 12:37:00,9.3,3.0,30.16,South,184,0.0,0.0,75,0.00,,OVC018,0.00,VWS V14.01,2013-01-01 18:37:00,
2013-01-01 12:42:00,9.5,3.2,30.15,South,184,3.0,4.0,75,0.00,,OVC016,0.00,VWS V14.01,2013-01-01 18:42:00,
2013-01-01 12:48:00,9.6,3.3,30.15,South,180,1.0,4.0,75,0.00,,OVC016,0.00,VWS V14.01,2013-01-01 18:48:00,
2013-01-01 12:53:00,9.6,3.3,30.15,South,180,3.0,3.0,75,0.00,,OVC016,0.00,VWS V14.01,2013-01-01 18:53:00,
2013-01-01 12:59:00,9.8,3.8,30.15,South,180,1.0,3.0,76,0.00,,OVC016,0.00,VWS V14.01,2013-01-01 18:59:00,
2013-01-01 13:05:00,9.8,3.8,30.15,South,179,1.0,4.0,76,0.00,,OVC014,0.00,VWS V14.01,2013-01-01 19:05:00,
2013-01-01 13:10:00,10.0,4.0,30.15,South,179,0.0,4.0,76,0.00,,OVC014,0.00,VWS V14.01,2013-01-01 19:10:00,
2013-01-01 13:16:00,10.1,4.1,30.14,South,180,2.0,4.0,76,0.00,,OVC014,0.00,VWS V14.01,2013-01-01 19:16:00,
2013-01-01 13:21:00,10.1,4.3,30.14,South,172,0.0,1.0,77,0.00,,OVC014,0.00,VWS V14.01,2013-01-01 19:21:00,
2013-01-01 13:26:00,10.2,5.0,30.14,South,172,4.0,5.0,79,0.00,,OVC010,0.00,VWS V14.01,2013-01-01 19:26:00,
2013-01-01 13:32:00,10.2,5.0,30.14,South,178,2.0,6.0,79,0.00,,OVC010,0.00,VWS V14.01,2013-01-01 19:32:00,
2013-01-01 13:37:00,10.2,5.0,30.14,South,188,2.0,5.0,79,0.00,,OVC010,0.00,VWS V14.01,2013-01-01 19:37:00,
2013-01-01 13:43:00,10.1,5.2,30.14,South,184,3.0,3.0,80,0.00,,OVC010,0.00,VWS V14.01,2013-01-01 19:43:00,
2013-01-01 13:48:00,10.2,5.5,30.14,SSE,168,1.0,4.0,81,0.00,,OVC010,0.00,VWS V14.01,2013-01-01 19:48:00,
2013-01-01 13:53:00,10.3,5.6,30.14,South,186,3.0,3.0,81,0.00,,OVC010,0.00,VWS V14.01,2013-01-01 19:53:00,
2013-01-01 13:58:00,10.3,5.6,30.14,South,189,1.0,6.0,81,0.00,,OVC010,0.00,VWS V14.01,2013-01-01 19:58:00,
2013-01-01 14:04:00,10.3,5.9,30.14,SSW,192,1.0,7.0,82,0.00,,OVC010,0.00,VWS V14.01,2013-01-01 20:04:00,
2013-01-01 14:09:00,10.3,5.9,30.13,South,180,1.0,1.0,82,0.00,,OVC010,0.00,VWS V14.01,2013-01-01 20:09:00,
2013-01-01 14:14:00,10.3,5.9,30.13,South,184,2.0,5.0,82,0.00,,OVC010,0.00,VWS V14.01,2013-01-01 20:14:00,
2013-01-01 14:19:00,10.3,5.9,30.13,SSE,153,4.0,4.0,82,0.00,,OVC010,0.00,VWS V14.01,2013-01-01 20:19:00,
2013-01-01 14:24:00,10.3,6.2,30.13,South,181,2.0,3.0,83,0.00,,OVC010,0.00,VWS V14.01,2013-01-01 20:24:00,
2013-01-01 14:29:00,10.4,6.3,30.13,South,180,0.0,4.0,83,0.00,,OVC010,0.00,VWS V14.01,2013-01-01 20:29:00,
2013-01-01 14:34:00,10.4,6.3,30.13,South,178,4.0,4.0,83,0.00,,OVC010,0.00,VWS V14.01,2013-01-01 20:34:00,
2013-01-01 14:39:00,10.7,6.8,30.13,South,178,0.0,1.0,84,0.00,,OVC010,0.00,VWS V14.01,2013-01-01 20:39:00,
2013-01-01 14:44:00,10.6,6.5,30.13,South,180,4.0,5.0,83,0.00,,OVC010,0.00,VWS V14.01,2013-01-01 20:44:00,
2013-01-01 14:49:00,10.7,6.6,30.13,South,178,2.0,2.0,83,0.00,,OVC010,0.00,VWS V14.01,2013-01-01 20:49:00,
2013-01-01 14:54:00,10.8,6.9,30.13,South,178,0.0,1.0,84,0.00,,OVC010,0.00,VWS V14.01,2013-01-01 20:54:00,
2013-01-01 14:59:00,10.9,7.0,30.13,South,178,0.0,0.0,84,0.00,,OVC010,0.00,VWS V14.01,2013-01-01 20:59:00,
2013-01-01 15:04:00,11.0,7.1,30.12,South,178,2.0,4.0,84,0.00,,OVC010,0.00,VWS V14.01,2013-01-01 21:04:00,
2013-01-01 15:09:00,11.2,7.3,30.13,South,178,0.0,2.0,84,0.00,,OVC010,0.00,VWS V14.01,2013-01-01 21:09:00,
2013-01-01 15:14:00,11.3,7.4,30.13,South,178,0.0,0.0,84,0.00,,OVC010,0.00,VWS V14.01,2013-01-01 21:14:00,
2013-01-01 15:19:00,11.4,7.5,30.13,South,178,1.0,2.0,84,0.00,,OVC010,0.00,VWS V14.01,2013-01-01 21:19:00,
2013-01-01 15:24:00,11.5,7.9,30.12,South,178,0.0,4.0,85,0.00,,OVC012,0.00,VWS V14.01,2013-01-01 21:24:00,
2013-01-01 15:29:00,11.6,8.0,30.12,South,178,0.0,0.0,85,0.00,,OVC012,0.00,VWS V14.01,2013-01-01 21:29:00,
2013-01-01 15:34:00,11.7,8.1,30.12,South,178,0.0,1.0,85,0.00,,OVC012,0.00,VWS V14.01,2013-01-01 21:34:00,
2013-01-01 15:39:00,11.8,8.2,30.12,South,178,0.0,0.0,85,0.00,,OVC012,0.00,VWS V14.01,2013-01-01 21:39:00,
2013-01-01 15:44:00,12.0,8.6,30.12,South,178,0.0,0.0,86,0.00,,OVC014,0.00,VWS V14.01,2013-01-01 21:44:00,
2013-01-01 15:49:00,12.1,8.7,30.12,South,178,4.0,6.0,86,0.00,,OVC014,0.00,VWS V14.01,2013-01-01 21:49:00,
2013-01-01 15:54:00,12.2,8.8,30.12,South,178,0.0,2.0,86,0.00,,OVC014,0.00,VWS V14.01,2013-01-01 21:54:00,
2013-01-01 15:59:00,12.2,8.8,30.12,South,178,0.0,2.0,86,0.00,,OVC014,0.00,VWS V14.01,2013-01-01 21:59:00,
2013-01-01 16:04:00,12.3,8.9,30.12,South,178,0.0,0.0,86,0.00,,OVC016,0.00,VWS V14.01,2013-01-01 22:04:00,
2013-01-01 16:09:00,12.4,9.0,30.12,South,178,1.0,2.0,86,0.00,,OVC016,0.00,VWS V14.01,2013-01-01 22:09:00,
2013-01-01 16:15:00,12.5,9.1,30.12,South,178,0.0,0.0,86,0.00,,OVC016,0.00,VWS V14.01,2013-01-01 22:15:00,
2013-01-01 16:20:00,12.7,9.3,30.12,South,178,0.0,1.0,86,0.00,,OVC016,0.00,VWS V14.01,2013-01-01 22:20:00,
2013-01-01 16:25:00,12.7,9.6,30.12,South,178,2.0,2.0,87,0.00,,OVC016,0.00,VWS V14.01,2013-01-01 22:25:00,
2013-01-01 16:30:00,12.8,9.7,30.12,South,178,0.0,0.0,87,0.00,,OVC016,0.00,VWS V14.01,2013-01-01 22:30:00,
2013-01-01 16:35:00,12.9,9.8,30.12,South,178,1.0,2.0,87,0.00,,OVC016,0.00,VWS V14.01,2013-01-01 22:35:00,
2013-01-01 16:41:00,13.0,9.9,30.12,South,178,0.0,5.0,87,0.00,,OVC014,0.00,VWS V14.01,2013-01-01 22:41:00,
2013-01-01 16:47:00,13.1,10.0,30.12,South,178,4.0,4.0,87,0.00,,OVC014,0.00,VWS V14.01,2013-01-01 22:47:00,
2013-01-01 16:52:00,13.3,10.2,30.11,South,178,0.0,5.0,87,0.00,,OVC014,0.00,VWS V14.01,2013-01-01 22:52:00,
2013-01-01 16:57:00,13.3,10.2,30.11,South,178,0.0,6.0,87,0.00,,OVC014,0.00,VWS V14.01,2013-01-01 22:57:00,
2013-01-01 17:03:00,13.5,10.6,30.11,South,178,0.0,1.0,88,0.00,,OVC026,0.00,VWS V14.01,2013-01-01 23:03:00,
2013-01-01 17:08:00,13.6,10.7,30.11,South,176,1.0,5.0,88,0.00,,OVC026,0.00,VWS V14.01,2013-01-01 23:08:00,
2013-01-01 17:14:00,13.7,10.8,30.11,South,176,0.0,2.0,88,0.00,,OVC026,0.00,VWS V14.01,2013-01-01 23:14:00,
2013-01-01 17:19:00,13.8,10.9,30.11,South,176,0.0,5.0,88,0.00,,OVC026,0.00,VWS V14.01,2013-01-01 23:19:00,
2013-01-01 17:24:00,13.9,11.0,30.11,South,186,2.0,5.0,88,0.00,,,0.00,VWS V14.01,2013-01-01 23:24:00,
2013-01-01 17:29:00,14.0,11.1,30.10,South,182,3.0,4.0,88,0.00,,,0.00,VWS V14.01,2013-01-01 23:29:00,
2013-01-01 17:35:00,14.0,11.1,30.10,South,183,3.0,4.0,88,0.00,,,0.00,VWS V14.01,2013-01-01 23:35:00,
2013-01-01 17:40:00,14.0,11.1,30.10,South,172,7.0,7.0,88,0.00,,,0.00,VWS V14.01,2013-01-01 23:40:00,
2013-01-01 17:46:00,14.1,11.2,30.10,SSE,159,0.0,6.0,88,0.00,,OVC028,0.00,VWS V14.01,2013-01-01 23:46:00,
2013-01-01 17:51:00,14.2,11.3,30.10,SSE,161,0.0,5.0,88,0.00,,OVC028,0.00,VWS V14.01,2013-01-01 23:51:00,
2013-01-01 17:57:00,14.4,11.5,30.09,SSE,163,2.0,6.0,88,0.00,,OVC028,0.00,VWS V14.01,2013-01-01 23:57:00,
2013-01-01 18:02:00,14.5,11.6,30.09,South,180,4.0,8.0,88,0.00,,OVC016,0.00,VWS V14.01,2013-01-02 00:02:00,
2013-01-01 18:07:00,14.6,11.7,30.09,South,175,1.0,6.0,88,0.00,,OVC016,0.00,VWS V14.01,2013-01-02 00:07:00,
2013-01-01 18:12:00,14.7,11.8,30.09,South,173,4.0,6.0,88,0.00,,OVC016,0.00,VWS V14.01,2013-01-02 00:12:00,
2013-01-01 18:18:00,14.8,11.9,30.09,South,174,2.0,6.0,88,0.00,,OVC016,0.00,VWS V14.01,2013-01-02 00:18:00,
2013-01-01 18:23:00,14.8,11.9,30.09,South,174,0.0,5.0,88,0.00,,OVC016,0.00,VWS V14.01,2013-01-02 00:23:00,
2013-01-01 18:28:00,14.9,12.0,30.09,South,174,6.0,7.0,88,0.00,,OVC016,0.00,VWS V14.01,2013-01-02 00:28:00,
2013-01-01 18:34:00,14.9,11.7,30.08,South,174,2.0,5.0,87,0.00,,OVC016,0.00,VWS V14.01,2013-01-02 00:34:00,
2013-01-01 18:39:00,15.0,11.8,30.08,South,174,0.0,4.0,87,0.00,,OVC016,0.00,VWS V14.01,2013-01-02 00:39:00,
2013-01-01 18:45:00,15.0,11.8,30.08,South,174,0.0,4.0,87,0.00,,OVC016,0.00,VWS V14.01,2013-01-02 00:45:00,
2013-01-01 18:50:00,15.0,11.8,30.08,South,174,4.0,5.0,87,0.00,,OVC016,0.00,VWS V14.01,2013-01-02 00:50:00,
2013-01-01 18:55:00,15.1,11.9,30.08,South,174,4.0,5.0,87,0.00,,OVC016,0.00,VWS V14.01,2013-01-02 00:55:00,
2013-01-01 19:00:00,15.2,12.0,30.08,South,174,0.0,5.0,87,0.00,,OVC016,0.00,VWS V14.01,2013-01-02 01:00:00,
2013-01-01 19:05:00,15.2,12.3,30.08,South,174,0.0,1.0,88,0.00,,OVC016,0.00,VWS V14.01,2013-01-02 01:05:00,
2013-01-01 19:11:00,15.2,12.3,30.08,South,174,0.0,2.0,88,0.00,,OVC016,0.00,VWS V14.01,2013-01-02 01:11:00,
2013-01-01 19:16:00,15.3,12.4,30.07,South,174,1.0,2.0,88,0.00,,OVC016,0.00,VWS V14.01,2013-01-02 01:16:00,
2013-01-01 19:21:00,15.4,12.5,30.07,South,174,0.0,4.0,88,0.00,,OVC016,0.00,VWS V14.01,2013-01-02 01:21:00,
2013-01-01 19:27:00,15.6,12.7,30.07,South,175,2.0,5.0,88,0.00,,OVC016,0.00,VWS V14.01,2013-01-02 01:27:00,
2013-01-01 19:32:00,15.7,12.8,30.07,South,175,1.0,5.0,88,0.00,,OVC016,0.00,VWS V14.01,2013-01-02 01:32:00,
2013-01-01 19:38:00,15.8,12.9,30.07,South,173,2.0,4.0,88,0.00,,OVC016,0.00,VWS V14.01,2013-01-02 01:38:00,
2013-01-01 19:43:00,15.9,13.0,30.07,South,173,0.0,5.0,88,0.00,,OVC027,0.00,VWS V14.01,2013-01-02 01:43:00,
2013-01-01 19:48:00,16.0,13.1,30.07,South,173,1.0,2.0,88,0.00,,OVC027,0.00,VWS V14.01,2013-01-02 01:48:00,
2013-01-01 19:54:00,16.2,13.5,30.07,South,173,0.0,0.0,89,0.00,,OVC027,0.00,VWS V14.01,2013-01-02 01:54:00,
2013-01-01 20:00:00,16.5,13.8,30.07,South,173,0.0,0.0,89,0.00,,OVC027,0.00,VWS V14.01,2013-01-02 02:00:00,
2013-01-01 20:05:00,17.0,14.6,30.07,SW,219,0.0,2.0,90,0.00,,OVC025,0.00,VWS V14.01,2013-01-02 02:05:00,
2013-01-01 20:10:00,17.4,15.0,30.06,SW,219,1.0,2.0,90,0.00,,OVC025,0.00,VWS V14.01,2013-01-02 02:10:00,
2013-01-01 20:15:00,17.7,15.3,30.06,SW,219,0.0,2.0,90,0.00,,OVC025,0.00,VWS V14.01,2013-01-02 02:15:00,
2013-01-01 20:20:00,17.8,15.1,30.06,SSE,150,0.0,2.0,89,0.00,,OVC025,0.00,VWS V14.01,2013-01-02 02:20:00,
2013-01-01 20:25:00,17.9,15.2,30.06,SSE,150,0.0,0.0,89,0.00,,OVC025,0.00,VWS V14.01,2013-01-02 02:25:00,
2013-01-01 20:30:00,18.0,15.3,30.06,SSE,150,1.0,1.0,89,0.00,,OVC025,0.00,VWS V14.01,2013-01-02 02:30:00,
2013-01-01 20:35:00,18.0,15.3,30.06,SSE,150,0.0,2.0,89,0.00,,OVC025,0.00,VWS V14.01,2013-01-02 02:35:00,
2013-01-01 20:40:00,18.0,15.3,30.06,SSE,150,0.0,2.0,89,0.00,,OVC025,0.00,VWS V14.01,2013-01-02 02:40:00,
2013-01-01 20:46:00,18.0,15.3,30.06,SW,221,0.0,2.0,89,0.00,,OVC014,0.00,VWS V14.01,2013-01-02 02:46:00,
2013-01-01 20:51:00,18.1,15.4,30.05,SW,215,0.0,3.0,89,0.00,,OVC014,0.00,VWS V14.01,2013-01-02 02:51:00,
2013-01-01 20:57:00,18.1,15.7,30.05,SW,222,0.0,1.0,90,0.00,,OVC014,0.00,VWS V14.01,2013-01-02 02:57:00,
2013-01-01 21:02:00,18.2,15.8,30.05,SW,222,0.0,0.0,90,0.00,,OVC014,0.00,VWS V14.01,2013-01-02 03:02:00,
2013-01-01 21:07:00,18.3,15.9,30.05,SW,222,0.0,1.0,90,0.00,,OVC014,0.00,VWS V14.01,2013-01-02 03:07:00,
2013-01-01 21:12:00,18.5,16.1,30.05,SW,222,0.0,0.0,90,0.00,,OVC014,0.00,VWS V14.01,2013-01-02 03:12:00,
2013-01-01 21:17:00,18.6,16.2,30.05,SW,222,0.0,1.0,90,0.00,,OVC014,0.00,VWS V14.01,2013-01-02 03:17:00,
2013-01-01 21:22:00,18.7,16.3,30.04,West,269,7.0,7.0,90,0.00,,OVC014,0.00,VWS V14.01,2013-01-02 03:22:00,
2013-01-01 21:27:00,18.8,16.4,30.04,SW,225,0.0,1.0,90,0.00,,OVC014,0.00,VWS V14.01,2013-01-02 03:27:00,
2013-01-01 21:33:00,18.9,16.5,30.04,SW,225,0.0,3.0,90,0.00,,OVC014,0.00,VWS V14.01,2013-01-02 03:33:00,
2013-01-01 21:39:00,19.0,16.6,30.04,SW,225,3.0,3.0,90,0.00,,OVC014,0.00,VWS V14.01,2013-01-02 03:39:00,
2013-01-01 21:45:00,19.0,16.6,30.04,SW,225,2.0,2.0,90,0.00,,OVC012,0.00,VWS V14.01,2013-01-02 03:45:00,
2013-01-01 21:50:00,19.0,16.6,30.04,SW,229,1.0,4.0,90,0.00,,OVC012,0.00,VWS V14.01,2013-01-02 03:50:00,
2013-01-01 21:56:00,19.0,16.6,30.04,SW,229,0.0,1.0,90,0.00,,OVC012,0.00,VWS V14.01,2013-01-02 03:56:00,
2013-01-01 22:01:00,19.0,16.6,30.04,SW,229,0.0,1.0,90,0.00,,OVC012,0.00,VWS V14.01,2013-01-02 04:01:00,
2013-01-01 22:06:00,18.9,16.5,30.04,SW,229,1.0,4.0,90,0.00,,OVC012,0.00,VWS V14.01,2013-01-02 04:06:00,
2013-01-01 22:11:00,18.9,16.5,30.03,SW,236,1.0,4.0,90,0.00,,OVC012,0.00,VWS V14.01,2013-01-02 04:11:00,
2013-01-01 22:16:00,18.8,16.4,30.03,SSW,202,0.0,3.0,90,0.00,,OVC012,0.00,VWS V14.01,2013-01-02 04:16:00,
2013-01-01 22:21:00,18.8,16.4,30.03,WSW,252,0.0,3.0,90,0.00,,OVC012,0.00,VWS V14.01,2013-01-02 04:21:00,
2013-01-01 22:26:00,18.7,16.3,30.03,WSW,239,0.0,2.0,90,0.00,,OVC012,0.00,VWS V14.01,2013-01-02 04:26:00,
2013-01-01 22:32:00,18.5,16.1,30.03,South,190,5.0,7.0,90,0.00,,OVC012,0.00,VWS V14.01,2013-01-02 04:32:00,
2013-01-01 22:37:00,18.3,15.9,30.03,SSW,213,2.0,6.0,90,0.00,,OVC012,0.00,VWS V14.01,2013-01-02 04:37:00,
2013-01-01 22:42:00,18.1,15.7,30.03,South,181,1.0,4.0,90,0.00,,OVC012,0.00,VWS V14.01,2013-01-02 04:42:00,
2013-01-01 22:47:00,18.0,15.6,30.03,South,182,4.0,8.0,90,0.00,,OVC012,0.00,VWS V14.01,2013-01-02 04:47:00,
2013-01-01 22:52:00,17.8,15.4,30.02,South,186,7.0,7.0,90,0.00,,OVC012,0.00,VWS V14.01,2013-01-02 04:52:00,
2013-01-01 22:57:00,17.6,15.2,30.02,South,180,2.0,3.0,90,0.00,,OVC012,0.00,VWS V14.01,2013-01-02 04:57:00,
2013-01-01 23:00:00,17.5,15.1,30.02,South,173,4.0,10.0,90,0.00,,OVC012,0.00,VWS V14.01,2013-01-02 05:00:00,
2013-01-01 23:06:00,17.4,15.0,30.02,South,183,3.0,5.0,90,0.00,,OVC012,0.00,VWS V14.01,2013-01-02 05:06:00,
2013-01-01 23:07:00,17.4,15.0,30.02,South,188,4.0,6.0,90,0.00,,OVC012,0.00,VWS V14.01,2013-01-02 05:07:00,
2013-01-01 23:10:00,17.3,14.9,30.02,South,189,2.0,6.0,90,0.00,,OVC012,0.00,VWS V14.01,2013-01-02 05:10:00,
2013-01-01 23:15:00,17.3,14.6,30.02,South,186,1.0,3.0,89,0.00,,OVC012,0.00,VWS V14.01,2013-01-02 05:15:00,
2013-01-01 23:19:00,17.2,14.5,30.02,SSE,158,7.0,8.0,89,0.00,,OVC012,0.00,VWS V14.01,2013-01-02 05:19:00,
2013-01-01 23:24:00,17.2,14.5,30.02,South,186,2.0,6.0,89,0.00,,OVC012,0.00,VWS V14.01,2013-01-02 05:24:00,
2013-01-01 23:30:00,17.1,14.4,30.01,SSW,205,3.0,6.0,89,0.00,,OVC012,0.00,VWS V14.01,2013-01-02 05:30:00,
2013-01-01 23:35:00,17.1,14.4,30.01,SSE,167,9.0,9.0,89,0.00,,OVC012,0.00,VWS V14.01,2013-01-02 05:35:00,
2013-01-01 23:40:00,17.0,14.3,30.01,South,179,4.0,4.0,89,0.00,,OVC012,0.00,VWS V14.01,2013-01-02 05:40:00,
2013-01-01 23:46:00,17.0,14.3,30.02,South,178,2.0,6.0,89,0.00,,OVC012,0.00,VWS V14.01,2013-01-02 05:46:00,
2013-01-01 23:52:00,17.0,14.3,30.01,South,180,0.0,1.0,89,0.00,,OVC012,0.00,VWS V14.01,2013-01-02 05:52:00,
2013-01-01 23:57:00,16.8,14.1,30.01,South,181,2.0,5.0,89,0.00,,OVC012,0.00,VWS V14.01,2013-01-02 05:57:00,